Loppoey — LCBX — position and weather

sailwx.info

Track history (hours):
 
Tides and Currents Weather Stations Pressure Air Temp Water Temp Dewpoint Dewpoint Depression Visibility Wind Speed Wind Dir Waves Ship Positions

Loppoey

Last reported at 2018-May-13 19:48 UTC. Time now 2018-Jun-24 20:41 UTC.
Position N 70°14' E 022°21'.
Warning: this ship's position is 42 days out of date.

Length 27 m; draft 1 m.

Type: High speed craft. MMSI: 258127000.

Date/timePositionNaut miles runAvg speedWind from/ knotsBaromVisibWave heightAir tempDewpointWater temp
2018-May-13 19:48N 70°14' E 022°21'723.1
2018-May-13 19:30N 70°21' E 022°16'815.6
2018-May-13 19:00N 70°29' E 022°15'2713.6
2018-May-13 17:01N 70°39' E 023°30'024.5
2018-May-13 17:00N 70°38' E 023°29'1220.6
2018-May-13 16:27N 70°32' E 022°60'1124.4
2018-May-13 16:00N 70°29' E 022°29'812.2
2018-May-13 15:22N 70°23' E 022°15'815.2
2018-May-13 14:52N 70°15' E 022°20'  
2018-May-09 15:24N 70°33' E 023°06'817.9
2018-May-09 14:59N 70°38' E 023°23'613.2
2018-May-09 14:30N 70°40' E 023°41'0 0.0
2018-May-09 13:59N 70°40' E 023°41'0 0.0
2018-May-09 13:30N 70°40' E 023°41'0 0.0
2018-May-09 13:00N 70°40' E 023°41'0 0.0
2018-May-09 12:27N 70°40' E 023°41'0 0.0
2018-May-09 12:00N 70°40' E 023°41'0 0.0
2018-May-09 11:30N 70°40' E 023°41'0 0.0
2018-May-09 11:00N 70°40' E 023°41'0 0.0
2018-May-09 10:30N 70°40' E 023°41'0 0.0
2018-May-09 09:58N 70°40' E 023°41'0 0.2
2018-May-09 09:29N 70°40' E 023°41'1223.0
2018-May-09 08:59N 70°33' E 023°11'5 0.1
2018-May-07 14:59N 70°38' E 023°21'712.4
2018-May-07 14:26N 70°40' E 023°41'0 0.0
2018-May-07 13:59N 70°40' E 023°41'0 0.0
2018-May-07 13:30N 70°40' E 023°41'0 0.0
2018-May-07 12:57N 70°40' E 023°41'0 0.0
2018-May-07 12:26N 70°40' E 023°41'0 0.0
2018-May-07 12:00N 70°40' E 023°41'0 0.0
2018-May-07 11:30N 70°40' E 023°41'0 0.0
2018-May-07 11:00N 70°40' E 023°41'0 0.0
2018-May-07 10:30N 70°40' E 023°41'0 0.0
2018-May-07 10:00N 70°40' E 023°41'0 0.0
2018-May-07 09:27N 70°40' E 023°41'0 0.0
2018-May-07 08:52N 70°40' E 023°41'0 0.0
2018-May-07 08:30N 70°40' E 023°41'0 0.0
2018-May-07 08:00N 70°40' E 023°41'0 0.0
2018-May-07 07:28N 70°40' E 023°41'0 0.0
2018-May-07 07:00N 70°40' E 023°41'1 1.2
2018-May-07 06:30N 70°40' E 023°39'6 0.5
2018-May-06 18:08N 70°34' E 023°37'324.3
2018-May-06 18:00N 70°37' E 023°36'4 6.7
2018-May-06 17:28N 70°40' E 023°41'917.5
2018-May-06 16:59N 70°36' E 023°18'4 0.1
2018-May-04 15:20N 70°33' E 023°09'818.9
2018-May-04 14:55N 70°38' E 023°27'510.8
2018-May-04 14:29N 70°40' E 023°41'0 0.0
2018-May-04 14:00N 70°40' E 023°41'0 0.0
2018-May-04 13:28N 70°40' E 023°41'0 0.0
2018-May-04 13:00N 70°40' E 023°41'0 0.0
2018-May-04 12:27N 70°40' E 023°41'0 0.0
2018-May-04 12:00N 70°40' E 023°41'0 0.0
2018-May-04 11:30N 70°40' E 023°41'0 0.0
2018-May-04 10:58N 70°40' E 023°41'0 0.0
2018-May-04 10:30N 70°40' E 023°41'0 0.0
2018-May-04 09:58N 70°40' E 023°41'0 0.0
2018-May-04 09:27N 70°40' E 023°41'0 0.0
2018-May-04 09:00N 70°40' E 023°41'0 0.0
2018-May-04 08:29N 70°40' E 023°41'0 0.0
2018-May-04 08:00N 70°40' E 023°41'0 0.0
2018-May-04 07:30N 70°40' E 023°41'0 0.2
2018-May-04 07:00N 70°40' E 023°41'1323.6
2018-May-04 06:27N 70°33' E 023°10'  
Track history (hours):
 
Tides and Currents Weather Stations Pressure Air Temp Water Temp Dewpoint Dewpoint Depression Visibility Wind Speed Wind Dir Waves Ship Positions

Loppoey

Last reported at 2018-May-13 19:48 UTC. Time now 2018-Jun-24 20:41 UTC.
Position N 70°14' E 022°21'.
Warning: this ship's position is 42 days out of date.

Length 27 m; draft 1 m.

Type: High speed craft. MMSI: 258127000.

Date/timePositionNaut miles runAvg speedWind from/ knotsBaromVisibWave heightAir tempDewpointWater temp
2018-May-13 19:48N 70°14' E 022°21'723.1
2018-May-13 19:30N 70°21' E 022°16'815.6
2018-May-13 19:00N 70°29' E 022°15'2713.6
2018-May-13 17:01N 70°39' E 023°30'024.5
2018-May-13 17:00N 70°38' E 023°29'1220.6
2018-May-13 16:27N 70°32' E 022°60'1124.4
2018-May-13 16:00N 70°29' E 022°29'812.2
2018-May-13 15:22N 70°23' E 022°15'815.2
2018-May-13 14:52N 70°15' E 022°20'  
2018-May-09 15:24N 70°33' E 023°06'817.9
2018-May-09 14:59N 70°38' E 023°23'613.2
2018-May-09 14:30N 70°40' E 023°41'0 0.0
2018-May-09 13:59N 70°40' E 023°41'0 0.0
2018-May-09 13:30N 70°40' E 023°41'0 0.0
2018-May-09 13:00N 70°40' E 023°41'0 0.0
2018-May-09 12:27N 70°40' E 023°41'0 0.0
2018-May-09 12:00N 70°40' E 023°41'0 0.0
2018-May-09 11:30N 70°40' E 023°41'0 0.0
2018-May-09 11:00N 70°40' E 023°41'0 0.0
2018-May-09 10:30N 70°40' E 023°41'0 0.0
2018-May-09 09:58N 70°40' E 023°41'0 0.2
2018-May-09 09:29N 70°40' E 023°41'1223.0
2018-May-09 08:59N 70°33' E 023°11'5 0.1
2018-May-07 14:59N 70°38' E 023°21'712.4
2018-May-07 14:26N 70°40' E 023°41'0 0.0
2018-May-07 13:59N 70°40' E 023°41'0 0.0
2018-May-07 13:30N 70°40' E 023°41'0 0.0
2018-May-07 12:57N 70°40' E 023°41'0 0.0
2018-May-07 12:26N 70°40' E 023°41'0 0.0
2018-May-07 12:00N 70°40' E 023°41'0 0.0
2018-May-07 11:30N 70°40' E 023°41'0 0.0
2018-May-07 11:00N 70°40' E 023°41'0 0.0
2018-May-07 10:30N 70°40' E 023°41'0 0.0
2018-May-07 10:00N 70°40' E 023°41'0 0.0
2018-May-07 09:27N 70°40' E 023°41'0 0.0
2018-May-07 08:52N 70°40' E 023°41'0 0.0
2018-May-07 08:30N 70°40' E 023°41'0 0.0
2018-May-07 08:00N 70°40' E 023°41'0 0.0
2018-May-07 07:28N 70°40' E 023°41'0 0.0
2018-May-07 07:00N 70°40' E 023°41'1 1.2
2018-May-07 06:30N 70°40' E 023°39'6 0.5
2018-May-06 18:08N 70°34' E 023°37'324.3
2018-May-06 18:00N 70°37' E 023°36'4 6.7
2018-May-06 17:28N 70°40' E 023°41'917.5
2018-May-06 16:59N 70°36' E 023°18'4 0.1
2018-May-04 15:20N 70°33' E 023°09'818.9
2018-May-04 14:55N 70°38' E 023°27'510.8
2018-May-04 14:29N 70°40' E 023°41'0 0.0
2018-May-04 14:00N 70°40' E 023°41'0 0.0
2018-May-04 13:28N 70°40' E 023°41'0 0.0
2018-May-04 13:00N 70°40' E 023°41'0 0.0
2018-May-04 12:27N 70°40' E 023°41'0 0.0
2018-May-04 12:00N 70°40' E 023°41'0 0.0
2018-May-04 11:30N 70°40' E 023°41'0 0.0
2018-May-04 10:58N 70°40' E 023°41'0 0.0
2018-May-04 10:30N 70°40' E 023°41'0 0.0
2018-May-04 09:58N 70°40' E 023°41'0 0.0
2018-May-04 09:27N 70°40' E 023°41'0 0.0
2018-May-04 09:00N 70°40' E 023°41'0 0.0
2018-May-04 08:29N 70°40' E 023°41'0 0.0
2018-May-04 08:00N 70°40' E 023°41'0 0.0
2018-May-04 07:30N 70°40' E 023°41'0 0.2
2018-May-04 07:00N 70°40' E 023°41'1323.6
2018-May-04 06:27N 70°33' E 023°10'  

Dump ship's entire track history